Time,TemperatureF,DewpointF,PressureIn,WindDirection,WindDirectionDegrees,WindSpeedMPH,WindSpeedGustMPH,Humidity,HourlyPrecipIn,Conditions,Clouds,dailyrainin,SoftwareType,DateUTC
2013-10-11 00:11:00,50.0,38.0,27.98,WNW,298,5.0,12.0,63,0.00,,,0.00,,2013-10-11 07:11:00,
2013-10-11 00:21:00,50.0,38.0,27.99,NW,304,6.0,11.0,63,0.00,,,0.00,,2013-10-11 07:21:00,
2013-10-11 00:42:00,50.0,38.0,28.00,West,280,4.0,9.0,64,0.00,,,0.00,,2013-10-11 07:42:00,
2013-10-11 00:52:00,50.0,38.0,28.00,WSW,255,2.0,10.0,63,0.00,,,0.00,,2013-10-11 07:52:00,
2013-10-11 01:11:00,49.0,38.0,28.01,NW,324,1.0,5.0,66,0.00,,,0.00,,2013-10-11 08:11:00,
2013-10-11 01:21:00,47.0,37.0,28.01,NW,323,0.0,2.0,69,0.00,,,0.00,,2013-10-11 08:21:00,
2013-10-11 01:42:00,46.0,37.0,28.01,WNW,286,0.0,2.0,72,0.00,,,0.00,,2013-10-11 08:42:00,
2013-10-11 01:52:00,45.0,37.0,28.01,NNE,12,2.0,6.0,74,0.00,,,0.00,,2013-10-11 08:52:00,
2013-10-11 02:12:00,45.0,37.0,28.02,SW,233,1.0,8.0,73,0.00,,,0.00,,2013-10-11 09:12:00,
2013-10-11 02:22:00,46.0,37.0,28.02,NW,305,8.0,12.0,72,0.00,,,0.00,,2013-10-11 09:22:00,
2013-10-11 02:42:00,47.0,38.0,28.03,NNW,332,4.0,13.0,71,0.00,,,0.00,,2013-10-11 09:42:00,
2013-10-11 02:54:00,47.0,38.0,28.03,NW,304,4.0,10.0,70,0.00,,,0.00,,2013-10-11 09:54:00,
2013-10-11 03:12:00,47.0,38.0,28.03,NW,309,1.0,2.0,71,0.00,,,0.00,,2013-10-11 10:12:00,
2013-10-11 03:23:00,47.0,38.0,28.03,WNW,302,5.0,9.0,71,0.00,,,0.00,,2013-10-11 10:23:00,
2013-10-11 03:42:00,46.0,37.0,28.03,WNW,302,9.0,15.0,71,0.00,,,0.00,,2013-10-11 10:42:00,
2013-10-11 03:53:00,46.0,37.0,28.04,NW,319,9.0,14.0,72,0.00,,,0.00,,2013-10-11 10:53:00,
2013-10-11 04:12:00,47.0,38.0,28.05,WNW,302,6.0,11.0,71,0.00,,,0.00,,2013-10-11 11:12:00,
2013-10-11 04:22:00,46.0,37.0,28.05,WNW,302,10.0,17.0,71,0.00,,,0.00,,2013-10-11 11:22:00,
2013-10-11 04:52:00,46.0,37.0,28.06,NW,308,7.0,15.0,71,0.00,,,0.00,,2013-10-11 11:52:00,
2013-10-11 05:11:00,46.0,39.0,28.06,NW,316,0.0,1.0,75,0.00,,,0.00,,2013-10-11 12:11:00,
2013-10-11 05:22:00,46.0,37.0,28.06,WNW,297,6.0,11.0,71,0.00,,,0.00,,2013-10-11 12:22:00,
2013-10-11 05:42:00,46.0,37.0,28.07,NNW,327,4.0,11.0,72,0.00,,,0.00,,2013-10-11 12:42:00,
2013-10-11 05:52:00,45.0,37.0,28.07,WNW,297,1.0,11.0,73,0.00,,,0.00,,2013-10-11 12:52:00,
2013-10-11 06:11:00,45.0,37.0,28.07,NW,312,6.0,11.0,72,0.00,,,0.00,,2013-10-11 13:11:00,
2013-10-11 06:21:00,45.0,37.0,28.07,NW,312,6.0,11.0,72,0.00,,,0.00,,2013-10-11 13:21:00,
2013-10-11 06:42:00,45.0,37.0,28.07,WNW,299,5.0,10.0,73,0.00,,,0.00,,2013-10-11 13:42:00,
2013-10-11 06:52:00,45.0,37.0,28.09,NNW,327,3.0,7.0,74,0.00,,,0.00,,2013-10-11 13:52:00,
2013-10-11 07:11:00,43.0,36.0,28.08,NW,326,0.0,6.0,76,0.00,,,0.00,,2013-10-11 14:11:00,
2013-10-11 07:22:00,44.0,37.0,28.10,NW,319,4.0,6.0,77,0.00,,,0.00,,2013-10-11 14:22:00,
2013-10-11 07:42:00,43.0,37.0,28.09,West,277,4.0,9.0,78,0.00,,,0.00,,2013-10-11 14:42:00,
2013-10-11 07:52:00,45.0,37.0,28.10,WNW,282,6.0,10.0,73,0.00,,,0.00,,2013-10-11 14:52:00,
2013-10-11 08:11:00,45.0,36.0,28.09,NW,316,7.0,12.0,71,0.00,,,0.00,,2013-10-11 15:11:00,
2013-10-11 08:22:00,45.0,37.0,28.11,WNW,302,1.0,6.0,73,0.00,,,0.00,,2013-10-11 15:22:00,
2013-10-11 08:43:00,43.0,36.0,28.09,WNW,292,1.0,4.0,77,0.00,,,0.00,,2013-10-11 15:43:00,
2013-10-11 08:53:00,45.0,37.0,28.11,WNW,295,4.0,8.0,73,0.00,,,0.00,,2013-10-11 15:53:00,
2013-10-11 09:13:00,44.0,37.0,28.10,NW,311,4.0,8.0,76,0.00,,,0.00,,2013-10-11 16:13:00,
2013-10-11 09:22:00,45.0,38.0,28.12,WNW,283,1.0,5.0,77,0.00,,,0.00,,2013-10-11 16:22:00,
2013-10-11 09:43:00,45.0,37.0,28.11,North,351,2.0,4.0,74,0.00,,,0.00,,2013-10-11 16:43:00,
2013-10-11 09:53:00,46.0,38.0,28.12,NW,319,3.0,5.0,74,0.00,,,0.00,,2013-10-11 16:53:00,
2013-10-11 10:12:00,45.0,37.0,28.11,NW,324,5.0,8.0,74,0.00,,,0.00,,2013-10-11 17:12:00,
2013-10-11 10:22:00,47.0,37.0,28.12,NW,304,7.0,10.0,68,0.00,,,0.00,,2013-10-11 17:22:00,
2013-10-11 10:43:00,47.0,37.0,28.11,NW,312,4.0,11.0,68,0.00,,,0.00,,2013-10-11 17:43:00,
2013-10-11 10:53:00,48.0,38.0,28.12,NW,319,4.0,7.0,68,0.00,,,0.00,,2013-10-11 17:53:00,
2013-10-11 11:12:00,48.0,38.0,28.11,NW,304,2.0,6.0,68,0.00,,,0.00,,2013-10-11 18:12:00,
2013-10-11 11:21:00,49.0,38.0,28.12,NW,316,3.0,5.0,66,0.00,,,0.00,,2013-10-11 18:21:00,
2013-10-11 11:42:00,50.0,38.0,28.10,WNW,295,2.0,4.0,64,0.00,,,0.00,,2013-10-11 18:42:00,
2013-10-11 11:52:00,51.0,38.0,28.11,North,1,1.0,3.0,62,0.00,,,0.00,,2013-10-11 18:52:00,
2013-10-11 12:11:00,52.0,39.0,28.09,North,9,2.0,3.0,62,0.00,,,0.00,,2013-10-11 19:11:00,
2013-10-11 12:21:00,53.0,39.0,28.10,NW,321,2.0,6.0,60,0.00,,,0.00,,2013-10-11 19:21:00,
2013-10-11 12:42:00,53.0,39.0,28.09,NE,41,1.0,5.0,59,0.00,,,0.00,,2013-10-11 19:42:00,
2013-10-11 12:52:00,55.0,39.0,28.09,NNW,327,3.0,5.0,55,0.00,,,0.00,,2013-10-11 19:52:00,
2013-10-11 13:12:00,55.0,39.0,28.07,NNE,30,2.0,6.0,54,0.00,,,0.00,,2013-10-11 20:12:00,
2013-10-11 13:22:00,56.0,39.0,28.08,NNE,16,0.0,2.0,53,0.00,,,0.00,,2013-10-11 20:22:00,
2013-10-11 13:42:00,56.0,38.0,28.06,ESE,110,0.0,3.0,51,0.00,,,0.00,,2013-10-11 20:42:00,
2013-10-11 13:53:00,58.0,40.0,28.07,SSE,165,0.0,1.0,52,0.00,,,0.00,,2013-10-11 20:53:00,
2013-10-11 14:12:00,58.0,41.0,28.05,ENE,78,0.0,2.0,53,0.00,,,0.00,,2013-10-11 21:12:00,
2013-10-11 14:22:00,60.0,42.0,28.05,ENE,71,0.0,2.0,51,0.00,,,0.00,,2013-10-11 21:22:00,
2013-10-11 14:43:00,60.0,38.0,28.04,SE,124,0.0,1.0,44,0.00,,,0.00,,2013-10-11 21:43:00,
2013-10-11 14:54:00,60.0,40.0,28.04,SE,125,0.0,1.0,47,0.00,,,0.00,,2013-10-11 21:54:00,
2013-10-11 15:13:00,60.0,39.0,28.04,SE,126,0.0,0.0,45,0.00,,,0.00,,2013-10-11 22:13:00,
2013-10-11 15:23:00,61.0,41.0,28.04,SE,129,0.0,1.0,47,0.00,,,0.00,,2013-10-11 22:23:00,
2013-10-11 15:43:00,61.0,39.0,28.03,East,84,0.0,1.0,44,0.00,,,0.00,,2013-10-11 22:43:00,
2013-10-11 15:53:00,61.0,40.0,28.04,East,96,0.0,1.0,45,0.00,,,0.00,,2013-10-11 22:53:00,
2013-10-11 16:12:00,60.0,38.0,28.03,ESE,105,0.0,1.0,44,0.00,,,0.00,,2013-10-11 23:12:00,
2013-10-11 16:22:00,61.0,39.0,28.04,ESE,104,0.0,1.0,44,0.00,,,0.00,,2013-10-11 23:22:00,
2013-10-11 16:42:00,60.0,38.0,28.02,ESE,104,0.0,1.0,44,0.00,,,0.00,,2013-10-11 23:42:00,
2013-10-11 16:53:00,61.0,39.0,28.03,ESE,104,0.0,0.0,44,0.00,,,0.00,,2013-10-11 23:53:00,
2013-10-11 17:12:00,60.0,37.0,28.02,ESE,104,0.0,1.0,43,0.00,,,0.00,,2013-10-12 00:12:00,
2013-10-11 17:22:00,59.0,37.0,28.03,ESE,105,0.0,1.0,44,0.00,,,0.00,,2013-10-12 00:22:00,
2013-10-11 17:42:00,58.0,38.0,28.01,ESE,104,0.0,0.0,47,0.00,,,0.00,,2013-10-12 00:42:00,
2013-10-11 17:52:00,58.0,38.0,28.02,ESE,104,0.0,0.0,48,0.00,,,0.00,,2013-10-12 00:52:00,
2013-10-11 18:11:00,57.0,39.0,28.01,ESE,109,0.0,1.0,51,0.00,,,0.00,,2013-10-12 01:11:00,
2013-10-11 18:22:00,56.0,39.0,28.02,ESE,108,0.0,1.0,53,0.00,,,0.00,,2013-10-12 01:22:00,
2013-10-11 18:42:00,55.0,38.0,28.00,SW,218,0.0,1.0,52,0.00,,,0.00,,2013-10-12 01:42:00,
2013-10-11 18:52:00,55.0,37.0,28.00,WSW,238,1.0,2.0,51,0.00,,,0.00,,2013-10-12 01:52:00,
2013-10-11 19:12:00,55.0,37.0,28.00,WSW,239,0.0,3.0,50,0.00,,,0.00,,2013-10-12 02:12:00,
2013-10-11 19:23:00,54.0,36.0,28.00,SW,231,0.0,1.0,51,0.00,,,0.00,,2013-10-12 02:23:00,
2013-10-11 19:42:00,55.0,37.0,28.00,NNW,336,1.0,3.0,51,0.00,,,0.00,,2013-10-12 02:42:00,
2013-10-11 19:52:00,56.0,37.0,28.00,NW,318,4.0,6.0,49,0.00,,,0.00,,2013-10-12 02:52:00,
2013-10-11 20:12:00,56.0,37.0,28.00,WNW,297,3.0,6.0,48,0.00,,,0.00,,2013-10-12 03:12:00,
2013-10-11 20:23:00,56.0,37.0,28.00,NW,323,2.0,5.0,48,0.00,,,0.00,,2013-10-12 03:23:00,
2013-10-11 20:44:00,55.0,37.0,28.00,WNW,302,1.0,4.0,50,0.00,,,0.00,,2013-10-12 03:44:00,
2013-10-11 20:54:00,55.0,38.0,28.00,West,280,3.0,8.0,52,0.00,,,0.00,,2013-10-12 03:54:00,
2013-10-11 21:14:00,54.0,38.0,28.00,West,276,0.0,3.0,54,0.00,,,0.00,,2013-10-12 04:14:00,
2013-10-11 21:24:00,54.0,38.0,28.00,WNW,291,1.0,4.0,54,0.00,,,0.00,,2013-10-12 04:24:00,
2013-10-11 21:44:00,54.0,38.0,28.00,NW,308,3.0,6.0,54,0.00,,,0.00,,2013-10-12 04:44:00,
2013-10-11 21:54:00,54.0,39.0,28.00,West,278,3.0,6.0,56,0.00,,,0.00,,2013-10-12 04:54:00,
2013-10-11 22:13:00,54.0,38.0,28.00,WNW,295,1.0,5.0,55,0.00,,,0.00,,2013-10-12 05:13:00,
2013-10-11 22:23:00,52.0,39.0,28.01,South,190,0.0,1.0,60,0.00,,,0.00,,2013-10-12 05:23:00,
2013-10-11 22:43:00,51.0,39.0,28.01,NE,54,0.0,2.0,64,0.00,,,0.00,,2013-10-12 05:43:00,
2013-10-11 22:52:00,51.0,40.0,28.01,NW,311,0.0,1.0,65,0.00,,,0.00,,2013-10-12 05:52:00,
2013-10-11 23:12:00,51.0,39.0,28.01,NNE,15,1.0,4.0,63,0.00,,,0.00,,2013-10-12 06:12:00,
2013-10-11 23:22:00,53.0,40.0,28.01,NW,316,2.0,6.0,61,0.00,,,0.00,,2013-10-12 06:22:00,
2013-10-11 23:42:00,52.0,41.0,28.00,ESE,108,2.0,3.0,65,0.00,,,0.00,,2013-10-12 06:42:00,
2013-10-11 23:52:00,51.0,40.0,28.01,ESE,115,2.0,4.0,67,0.00,,,0.00,,2013-10-12 06:52:00,